Time;durP1;ratioP1;P1;durP2;ratioP2;P2;SDS_P1;SDS_P2;PMS_P1;PMS_P2;Temp;Humidity;BMP_temperature;BMP_pressure;BME280_temperature;BME280_humidity;BME280_pressure;Samples;Min_cycle;Max_cycle;Signal;HPM_P1;HPM_P2
2023/07/10 00:02:34;;;;;;;8.73;5.68;;;;;;;27.18;58.33;101240.66;5047780;28;20051;-80
2023/07/10 00:05:21;;;;;;;12.02;5.32;;;;;;;27.10;58.64;101242.78;5054221;28;20056;-80
2023/07/10 00:08:05;;;;;;;11.88;6.22;;;;;;;27.04;58.96;101241.63;5036805;28;20048;-80
2023/07/10 00:10:51;;;;;;;12.32;6.53;;;;;;;26.93;59.04;101240.16;5055590;28;20043;-80
2023/07/10 00:13:36;;;;;;;11.27;6.57;;;;;;;26.27;61.68;101241.09;5050762;28;20044;-79
2023/07/10 00:16:21;;;;;;;11.80;6.05;;;;;;;26.35;60.89;101242.66;5056523;28;20067;-80
2023/07/10 00:19:10;;;;;;;14.68;6.13;;;;;;;26.49;60.67;101238.13;5055625;28;20048;-78
2023/07/10 00:21:56;;;;;;;13.60;6.80;;;;;;;26.46;60.44;101231.41;5028314;28;20056;-79
2023/07/10 00:24:40;;;;;;;20.00;6.80;;;;;;;26.34;61.05;101238.25;5035853;28;20052;-79
2023/07/10 00:27:25;;;;;;;11.75;6.07;;;;;;;26.41;60.78;101234.63;5054662;28;20044;-80
2023/07/10 00:30:15;;;;;;;11.30;6.60;;;;;;;26.17;61.34;101228.00;5049783;28;20062;-78
2023/07/10 00:33:00;;;;;;;7.78;6.15;;;;;;;26.22;61.81;101229.56;5056116;28;20055;-80
2023/07/10 00:35:46;;;;;;;11.35;6.35;;;;;;;25.93;62.34;101228.94;5041391;28;20051;-80
2023/07/10 00:38:33;;;;;;;8.50;5.80;;;;;;;25.78;63.20;101227.44;5030267;28;20051;-79
2023/07/10 00:41:21;;;;;;;9.82;6.57;;;;;;;25.65;63.88;101229.13;5036791;28;20068;-79
2023/07/10 00:44:06;;;;;;;10.93;6.28;;;;;;;25.66;64.50;101231.47;5037840;28;20057;-80
2023/07/10 00:46:56;;;;;;;13.65;7.47;;;;;;;25.48;65.23;101233.53;5042285;28;20496;-80
2023/07/10 00:49:50;;;;;;;14.10;6.47;;;;;;;25.58;64.72;101235.50;5055731;28;20504;-80
2023/07/10 00:52:39;;;;;;;10.18;6.43;;;;;;;25.62;64.35;101232.69;5054571;28;20048;-80
2023/07/10 00:55:34;;;;;;;10.70;7.07;;;;;;;25.83;63.35;101229.81;5051965;28;20460;-78
2023/07/10 00:58:24;;;;;;;9.60;6.65;;;;;;;25.39;65.08;101231.19;5053949;28;20044;-80
2023/07/10 01:01:13;;;;;;;8.02;5.90;;;;;;;25.43;64.74;101231.97;5040660;28;20064;-80
2023/07/10 01:03:58;;;;;;;11.85;7.65;;;;;;;25.34;65.47;101228.81;5047285;28;20036;-80
2023/07/10 01:06:43;;;;;;;13.02;6.50;;;;;;;25.27;65.96;101242.75;5039294;28;20048;-79
2023/07/10 01:09:28;;;;;;;15.30;6.47;;;;;;;25.48;64.82;101237.13;5039053;28;20072;-80
2023/07/10 01:12:13;;;;;;;11.02;6.45;;;;;;;25.47;64.40;101241.09;5036646;28;20048;-80
2023/07/10 01:14:58;;;;;;;9.48;5.82;;;;;;;25.61;63.77;101236.69;5038787;28;20048;-80
2023/07/10 01:17:46;;;;;;;11.50;5.82;;;;;;;25.87;63.05;101231.38;5046940;28;20063;-79
2023/07/10 01:20:39;;;;;;;9.48;5.72;;;;;;;26.04;61.73;101229.69;5053753;28;20044;-80
2023/07/10 01:23:23;;;;;;;6.88;5.70;;;;;;;26.10;61.62;101233.63;5024982;28;20044;-80
2023/07/10 01:26:08;;;;;;;;;;;;;;;26.13;61.56;101238.38;5051396;28;20048;-80
2023/07/10 01:28:54;;;;;;;11.65;5.95;;;;;;;26.22;61.07;101235.94;5041518;28;20393;-80
2023/07/10 01:31:39;;;;;;;6.30;5.07;;;;;;;26.21;60.79;101231.53;5039534;28;20063;-79
2023/07/10 01:35:03;;;;;;;6.32;4.70;;;;;;;26.32;60.11;101228.69;5033281;28;20051;-80
2023/07/10 01:37:48;;;;;;;8.57;4.82;;;;;;;26.27;60.27;101224.34;4975655;28;20053;-80
2023/07/10 01:40:37;;;;;;;7.65;5.53;;;;;;;26.40;59.77;101221.88;5054928;28;20068;-80
2023/07/10 01:43:22;;;;;;;10.45;5.45;;;;;;;26.35;60.16;101223.13;5042552;28;20425;-79
2023/07/10 01:46:19;;;;;;;9.98;6.03;;;;;;;26.25;60.28;101212.03;5040568;28;20112;-80
2023/07/10 01:49:04;;;;;;;11.07;5.40;;;;;;;26.19;60.21;101211.66;5030022;28;20064;-79
2023/07/10 01:51:50;;;;;;;8.68;5.88;;;;;;;26.27;60.18;101207.63;5054766;28;20040;-80
2023/07/10 01:54:35;;;;;;;10.45;5.60;;;;;;;26.26;60.17;101208.81;5040049;28;20055;-80
2023/07/10 01:57:23;;;;;;;9.73;5.47;;;;;;;26.25;59.88;101210.06;5030877;28;20048;-79
2023/07/10 02:00:09;;;;;;;9.95;5.22;;;;;;;26.20;60.16;101210.47;5042445;28;20056;-80
2023/07/10 02:02:57;;;;;;;9.13;5.35;;;;;;;26.20;60.17;101213.25;5054352;28;20060;-80
2023/07/10 02:05:41;;;;;;;8.18;5.40;;;;;;;26.18;60.19;101210.06;5040040;28;20044;-79
2023/07/10 02:08:26;;;;;;;8.43;5.65;;;;;;;26.21;59.81;101206.44;5035904;28;20536;-79
2023/07/10 02:11:11;;;;;;;6.10;5.20;;;;;;;26.10;60.46;101213.31;5053395;28;20071;-79
2023/07/10 02:13:56;;;;;;;7.70;5.10;;;;;;;26.06;60.65;101209.78;5037551;28;20548;-79
2023/07/10 02:16:41;;;;;;;15.38;6.15;;;;;;;26.01;60.59;101202.59;5035184;28;20048;-79
2023/07/10 02:19:26;;;;;;;9.77;5.50;;;;;;;26.04;60.35;101199.03;5054034;28;20060;-80
2023/07/10 02:22:10;;;;;;;;;;;;;;;26.12;60.17;101208.91;5041186;28;20055;-80
2023/07/10 02:24:54;;;;;;;7.70;5.40;;;;;;;26.07;60.28;101212.13;5052524;28;19913;-79
2023/07/10 02:27:39;;;;;;;8.50;6.00;;;;;;;26.07;60.57;101203.75;5050148;28;20040;-80
2023/07/10 02:30:24;;;;;;;12.23;5.47;;;;;;;26.12;60.14;101203.34;5045744;28;20044;-80
2023/07/10 02:33:09;;;;;;;7.20;4.70;;;;;;;26.13;59.94;101204.94;5054616;28;20047;-79
2023/07/10 02:35:54;;;;;;;10.07;4.90;;;;;;;26.10;60.18;101199.38;5044989;28;20449;-80
2023/07/10 02:38:39;;;;;;;9.88;5.75;;;;;;;26.09;60.24;101203.38;5038559;28;20048;-79
2023/07/10 02:41:24;;;;;;;8.05;5.70;;;;;;;26.08;60.03;101197.00;5040582;28;20513;-80
2023/07/10 02:44:09;;;;;;;12.95;5.03;;;;;;;26.07;60.00;101200.97;5024552;28;20045;-80
2023/07/10 02:46:54;;;;;;;7.85;4.50;;;;;;;26.07;60.20;101212.13;5028817;28;20076;-80
2023/07/10 02:49:39;;;;;;;12.95;6.00;;;;;;;26.04;60.10;101212.97;5035066;28;20563;-80
2023/07/10 02:52:23;;;;;;;11.10;5.53;;;;;;;26.05;59.95;101213.75;5069297;28;20512;-80
2023/07/10 02:55:09;;;;;;;6.20;4.30;;;;;;;26.01;59.92;101213.00;5042048;28;20056;-80
2023/07/10 02:57:54;;;;;;;9.15;5.10;;;;;;;26.03;59.89;101227.28;5050613;28;20056;-78
2023/07/10 03:00:39;;;;;;;8.02;4.93;;;;;;;25.96;60.49;101216.97;5052363;28;20047;-78
2023/07/10 03:03:25;;;;;;;7.10;4.80;;;;;;;25.97;60.20;101218.56;5078477;28;20039;-78
2023/07/10 03:06:09;;;;;;;7.28;5.15;;;;;;;25.95;60.07;101219.00;5050608;28;20040;-78
2023/07/10 03:08:54;;;;;;;;;;;;;;;26.03;59.86;101222.53;5044454;28;20063;-80
2023/07/10 03:11:38;;;;;;;9.40;4.80;;;;;;;25.91;60.31;101228.56;5051455;28;19913;-79
2023/07/10 03:14:23;;;;;;;9.63;5.35;;;;;;;25.96;59.97;101226.13;5043906;28;20425;-80
2023/07/10 03:17:08;;;;;;;8.68;4.53;;;;;;;26.01;59.86;101226.94;5057026;28;20048;-79
2023/07/10 03:19:53;;;;;;;8.02;5.15;;;;;;;26.04;59.52;101221.31;5056267;28;20044;-80
2023/07/10 03:22:38;;;;;;;12.18;5.13;;;;;;;26.05;59.63;101220.13;5051659;28;20048;-78
2023/07/10 03:25:22;;;;;;;8.13;4.65;;;;;;;26.06;59.86;101223.72;5116388;22;20047;-78
2023/07/10 03:28:07;;;;;;;11.48;4.68;;;;;;;26.03;59.86;101222.53;5076061;28;20047;-78
2023/07/10 03:30:52;;;;;;;11.38;5.63;;;;;;;26.01;59.59;101219.34;5062545;28;20552;-81
2023/07/10 03:33:37;;;;;;;9.95;5.10;;;;;;;25.93;59.37;101212.22;5053337;28;20055;-80
2023/07/10 03:36:40;;;;;;;10.20;4.70;;;;;;;25.94;59.65;101225.75;5055377;28;20055;-83
2023/07/10 03:39:25;;;;;;;6.88;4.72;;;;;;;25.88;59.85;101227.38;5051470;28;20055;-79
2023/07/10 03:42:11;;;;;;;12.43;5.10;;;;;;;25.90;59.98;101230.56;5067505;28;20056;-80
2023/07/10 03:44:56;;;;;;;8.43;4.63;;;;;;;25.92;59.28;101232.94;5073422;28;20051;-80
2023/07/10 03:47:45;;;;;;;7.30;4.38;;;;;;;25.91;59.48;101234.13;5062666;28;20410;-79
2023/07/10 03:50:34;;;;;;;8.85;4.30;;;;;;;25.92;59.59;101224.56;5064717;28;20035;-81
2023/07/10 03:53:18;;;;;;;9.30;4.65;;;;;;;25.96;59.14;101223.34;5055146;28;20417;-80
2023/07/10 03:56:04;;;;;;;7.15;4.78;;;;;;;25.95;59.11;101229.34;5066249;28;20055;-80
2023/07/10 03:58:50;;;;;;;9.18;4.95;;;;;;;25.93;59.30;101229.75;5054832;28;20040;-79
2023/07/10 04:01:35;;;;;;;11.85;4.35;;;;;;;25.95;58.94;101232.13;5048716;28;20052;-80
2023/07/10 04:04:20;;;;;;;8.48;4.55;;;;;;;25.99;59.12;101227.31;5046871;28;20043;-80
2023/07/10 04:07:05;;;;;;;7.57;5.07;;;;;;;25.99;58.94;101227.31;5073554;28;20039;-80
2023/07/10 04:09:51;;;;;;;8.60;4.55;;;;;;;26.03;58.70;101230.88;5065360;28;20043;-78
2023/07/10 04:12:40;;;;;;;7.82;4.63;;;;;;;26.08;58.49;101236.03;5063230;28;20063;-79
2023/07/10 04:15:24;;;;;;;10.98;5.35;;;;;;;26.10;58.64;101228.06;5047870;28;20055;-80
2023/07/10 04:18:09;;;;;;;6.70;4.28;;;;;;;26.12;58.54;101231.22;5044810;28;20052;-80
2023/07/10 04:20:54;;;;;;;6.97;4.60;;;;;;;26.09;58.44;101234.03;5063094;28;20060;-79
2023/07/10 04:23:39;;;;;;;7.60;5.10;;;;;;;26.04;58.75;101235.25;5053048;28;20039;-79
2023/07/10 04:26:31;;;;;;;7.32;4.75;;;;;;;26.06;58.86;101238.41;5069495;28;20056;-80
2023/07/10 04:29:17;;;;;;;6.20;4.55;;;;;;;25.99;58.74;101230.13;5057945;28;20046;-79
2023/07/10 04:32:03;;;;;;;8.43;4.82;;;;;;;26.07;58.40;101237.22;5052824;28;20429;-79
2023/07/10 04:34:47;;;;;;;9.27;4.75;;;;;;;26.11;58.20;101240.00;5055149;28;20051;-79
2023/07/10 04:37:32;;;;;;;10.10;4.72;;;;;;;26.21;57.98;101245.47;5067075;28;20047;-79
2023/07/10 04:40:17;;;;;;;9.85;4.78;;;;;;;26.26;57.81;101235.94;5052778;28;20517;-80
2023/07/10 04:43:03;;;;;;;7.60;4.38;;;;;;;26.26;57.90;101231.13;5042440;28;20518;-79
2023/07/10 04:45:49;;;;;;;6.82;4.90;;;;;;;26.34;57.81;101232.69;5049000;28;20047;-79
2023/07/10 04:48:34;;;;;;;10.00;4.65;;;;;;;26.36;57.50;101235.84;5048148;28;20055;-80
2023/07/10 04:51:19;;;;;;;11.98;4.68;;;;;;;26.34;57.63;101249.41;5069485;28;20059;-79
2023/07/10 04:54:05;;;;;;;9.88;5.20;;;;;;;26.34;57.81;101238.25;5062022;28;20119;-79
2023/07/10 04:56:52;;;;;;;10.45;5.32;;;;;;;26.41;57.26;101233.84;5067009;28;20039;-80
2023/07/10 04:59:37;;;;;;;11.43;5.32;;;;;;;26.44;57.21;101235.78;5045979;28;20051;-78
2023/07/10 05:02:23;;;;;;;9.38;4.72;;;;;;;26.45;57.45;101234.59;5081538;28;20517;-81
2023/07/10 05:05:08;;;;;;;9.50;5.20;;;;;;;26.48;57.57;101236.53;5074080;28;20055;-81
2023/07/10 05:08:00;;;;;;;9.70;4.60;;;;;;;26.51;56.98;101238.53;5072211;28;20047;-82
2023/07/10 05:10:44;;;;;;;8.05;4.40;;;;;;;26.54;57.31;101234.91;5058399;28;20052;-81
2023/07/10 05:13:30;;;;;;;8.98;4.60;;;;;;;26.59;56.62;101231.69;5056963;28;20039;-79
2023/07/10 05:16:15;;;;;;;7.40;4.95;;;;;;;26.55;56.91;101228.94;5060559;28;20674;-80
2023/07/10 05:19:00;;;;;;;15.65;5.03;;;;;;;26.58;57.02;101225.31;5065789;28;20414;-80
2023/07/10 05:21:45;;;;;;;13.02;4.68;;;;;;;26.63;57.26;101232.44;5059807;28;20055;-79
2023/07/10 05:24:30;;;;;;;7.93;5.43;;;;;;;26.67;57.39;101236.78;5060053;28;20406;-80
2023/07/10 05:27:15;;;;;;;11.27;4.97;;;;;;;26.62;57.58;101228.84;5051543;28;20052;-79
2023/07/10 05:30:00;;;;;;;11.95;4.47;;;;;;;26.65;57.65;101230.84;5059196;28;20044;-81
2023/07/10 05:32:45;;;;;;;9.32;5.75;;;;;;;26.69;57.92;101234.38;5073043;28;20410;-82
2023/07/10 05:35:30;;;;;;;11.15;5.30;;;;;;;26.75;58.16;101232.72;5059256;28;20063;-82
2023/07/10 05:38:15;;;;;;;8.32;5.22;;;;;;;26.80;58.17;101232.28;5064466;28;20071;-82
2023/07/10 05:41:01;;;;;;;14.00;4.85;;;;;;;26.85;57.75;101228.25;5084461;28;20053;-81
2023/07/10 05:43:46;;;;;;;11.38;5.03;;;;;;;26.86;57.67;101235.41;5065495;28;20074;-81
2023/07/10 05:46:31;;;;;;;11.55;4.00;;;;;;;26.93;57.43;101228.97;5081814;28;20051;-81
2023/07/10 05:49:17;;;;;;;12.77;4.55;;;;;;;26.92;57.36;101235.78;5051504;28;20051;-79
2023/07/10 05:52:03;;;;;;;10.70;5.05;;;;;;;27.10;57.15;101230.81;5063754;28;20060;-77
2023/07/10 05:54:47;;;;;;;21.58;5.53;;;;;;;27.11;56.36;101230.41;5062974;28;20051;-80
2023/07/10 05:57:32;;;;;;;10.40;5.00;;;;;;;27.18;56.23;101230.28;5067407;28;20067;-78
2023/07/10 06:00:18;;;;;;;17.85;5.43;;;;;;;27.23;56.74;101234.63;5082317;28;20047;-79
2023/07/10 06:03:02;;;;;;;12.27;6.50;;;;;;;27.28;56.42;101239.00;5071970;28;20055;-79
2023/07/10 06:06:01;;;;;;;11.55;5.82;;;;;;;27.39;55.90;101245.22;5084093;28;20039;-79
2023/07/10 06:08:45;;;;;;;12.50;5.13;;;;;;;27.46;55.35;101247.94;5066946;28;20059;-78
2023/07/10 06:11:30;;;;;;;20.15;5.60;;;;;;;27.50;55.02;101252.31;5071353;28;20059;-79
2023/07/10 06:14:15;;;;;;;12.23;4.57;;;;;;;27.47;55.06;101241.94;5067457;28;20059;-79
2023/07/10 06:17:01;;;;;;;8.35;4.70;;;;;;;27.56;55.42;101247.03;5066692;28;20047;-77
2023/07/10 06:19:48;;;;;;;15.50;5.50;;;;;;;27.62;55.24;101250.97;5085860;28;20398;-77
2023/07/10 06:22:33;;;;;;;15.23;4.95;;;;;;;27.48;55.58;101240.72;5083316;28;20063;-77
2023/07/10 06:25:18;;;;;;;12.52;4.22;;;;;;;27.42;55.97;101238.81;5081418;28;20043;-81
2023/07/10 06:28:03;;;;;;;19.52;4.53;;;;;;;27.39;55.97;101234.84;5064919;28;20051;-79
2023/07/10 06:31:07;;;;;;;11.73;4.63;;;;;;;27.42;55.56;101242.41;5047237;28;20043;-79
2023/07/10 06:33:51;;;;;;;6.80;3.97;;;;;;;27.38;55.56;101240.88;5062947;28;20036;-80
2023/07/10 06:36:36;;;;;;;10.98;4.78;;;;;;;27.39;55.66;101239.63;5050074;28;20051;-80
2023/07/10 06:39:21;;;;;;;15.15;5.28;;;;;;;27.39;55.47;101237.63;5062320;28;20043;-79
2023/07/10 06:42:06;;;;;;;14.90;5.43;;;;;;;27.42;55.65;101245.19;5046585;28;20047;-81
2023/07/10 06:44:52;;;;;;;17.48;5.38;;;;;;;27.45;55.10;101246.34;5059705;28;20115;-79
2023/07/10 06:47:43;;;;;;;15.45;4.32;;;;;;;27.46;55.14;101250.72;5062614;28;20111;-79
2023/07/10 06:50:28;;;;;;;10.10;4.10;;;;;;;27.46;55.21;101242.34;5060481;28;20043;-79
2023/07/10 06:53:13;;;;;;;12.68;4.57;;;;;;;27.48;55.33;101248.31;5063741;28;20040;-81
2023/07/10 06:56:00;;;;;;;14.85;4.68;;;;;;;27.50;54.99;101245.91;5048744;28;20043;-80
2023/07/10 06:58:45;;;;;;;7.80;4.93;;;;;;;27.49;55.07;101249.88;5060163;28;20055;-79
2023/07/10 07:01:30;;;;;;;16.65;3.85;;;;;;;27.53;55.15;101259.84;5046642;28;20048;-80
2023/07/10 07:04:15;;;;;;;8.55;3.63;;;;;;;27.53;54.84;101250.69;5060904;28;20046;-80
2023/07/10 07:07:00;;;;;;;13.43;5.18;;;;;;;27.55;54.73;101251.84;5035800;28;20059;-80
2023/07/10 07:09:46;;;;;;;7.55;4.35;;;;;;;27.58;54.83;101255.81;5053931;28;20039;-80
2023/07/10 07:12:31;;;;;;;11.43;4.70;;;;;;;27.59;54.70;101251.78;5081387;28;20043;-80
2023/07/10 07:15:18;;;;;;;15.38;4.72;;;;;;;27.65;54.64;101250.91;5040710;28;20055;-79
2023/07/10 07:18:03;;;;;;;6.90;3.85;;;;;;;27.68;54.36;101254.88;5051789;28;20064;-80
2023/07/10 07:20:49;;;;;;;7.10;3.90;;;;;;;27.72;54.31;101257.63;5053884;28;20044;-79
2023/07/10 07:23:33;;;;;;;11.30;3.97;;;;;;;27.73;54.14;101253.63;5053044;28;20043;-79
2023/07/10 07:26:19;;;;;;;7.80;3.50;;;;;;;27.75;54.16;101246.38;5061555;28;20048;-79
2023/07/10 07:29:04;;;;;;;7.03;4.07;;;;;;;27.75;54.12;101248.38;5082357;28;20047;-80
2023/07/10 07:31:49;;;;;;;8.30;3.38;;;;;;;27.79;54.27;101251.91;5066829;28;20040;-81
2023/07/10 07:34:35;;;;;;;7.13;4.10;;;;;;;27.80;53.89;101254.31;5065645;28;20189;-82
2023/07/10 07:37:20;;;;;;;8.27;3.40;;;;;;;27.82;53.99;101243.50;5068148;28;20051;-76
2023/07/10 07:40:06;;;;;;;9.98;3.60;;;;;;;27.85;53.87;101248.25;5043168;28;20048;-78
2023/07/10 07:42:51;;;;;;;6.63;3.28;;;;;;;27.86;53.64;101247.03;5044094;28;20040;-79
2023/07/10 07:45:36;;;;;;;6.95;3.85;;;;;;;27.88;53.78;101243.84;5063730;28;20567;-79
2023/07/10 07:48:23;;;;;;;8.90;3.80;;;;;;;27.90;53.43;101250.56;5058062;28;20521;-80
2023/07/10 07:51:09;;;;;;;11.48;3.72;;;;;;;27.90;53.71;101247.78;5051354;28;20044;-79
2023/07/10 07:54:05;;;;;;;7.57;4.07;;;;;;;27.93;53.45;101252.53;5061262;28;20056;-79
2023/07/10 07:56:50;;;;;;;9.65;3.67;;;;;;;27.93;53.49;101246.94;5057727;28;20081;-79
2023/07/10 07:59:35;;;;;;;7.10;3.55;;;;;;;27.98;53.62;101243.69;5068540;28;20043;-78
2023/07/10 08:02:20;;;;;;;6.13;3.47;;;;;;;27.98;53.59;101252.06;5062016;28;20051;-78
2023/07/10 08:05:06;;;;;;;8.38;3.88;;;;;;;28.00;53.38;101252.41;5046148;28;20059;-78
2023/07/10 08:07:51;;;;;;;7.32;3.63;;;;;;;28.03;53.47;101245.22;5044551;28;20081;-80
2023/07/10 08:10:41;;;;;;;7.40;3.70;;;;;;;28.04;53.28;101246.78;5062633;28;20043;-78
2023/07/10 08:13:26;;;;;;;7.38;3.65;;;;;;;28.04;52.96;101246.78;5060017;28;20059;-79
2023/07/10 08:16:12;;;;;;;8.88;3.78;;;;;;;28.06;53.13;101247.16;5044985;28;20059;-78
2023/07/10 08:18:56;;;;;;;5.18;3.58;;;;;;;28.09;53.01;101244.28;5048121;28;20262;-79
2023/07/10 08:21:44;;;;;;;5.97;3.42;;;;;;;28.13;52.97;101240.69;5060189;28;20521;-78
2023/07/10 08:24:28;;;;;;;4.50;3.08;;;;;;;28.13;53.14;101241.50;5058296;28;20048;-78
2023/07/10 08:27:13;;;;;;;6.30;3.20;;;;;;;28.16;53.00;101234.25;5062010;28;20039;-78
2023/07/10 08:29:58;;;;;;;6.65;3.63;;;;;;;28.20;52.78;101232.97;5060666;28;20043;-78
2023/07/10 08:32:43;;;;;;;6.28;3.67;;;;;;;28.24;53.04;101228.09;5044393;28;20043;-80
2023/07/10 08:35:28;;;;;;;5.70;3.38;;;;;;;28.28;52.89;101217.69;5048276;28;20047;-80
2023/07/10 08:38:14;;;;;;;6.70;3.17;;;;;;;28.32;52.75;101218.41;5060448;28;20418;-81
2023/07/10 08:41:02;;;;;;;6.07;4.00;;;;;;;28.35;52.57;101213.94;5044712;28;20044;-80
2023/07/10 08:43:48;;;;;;;5.63;3.20;;;;;;;28.39;52.49;101217.50;5060949;28;20056;-79
2023/07/10 08:46:33;;;;;;;7.10;3.55;;;;;;;28.40;52.50;101224.66;5039827;28;20043;-79
2023/07/10 08:49:37;;;;;;;10.80;3.42;;;;;;;28.48;51.91;101214.94;5051029;28;20040;-79
2023/07/10 08:52:35;;;;;;;6.73;3.60;;;;;;;28.50;52.15;101223.69;5051308;28;20040;-79
2023/07/10 08:55:37;;;;;;;4.72;2.85;;;;;;;28.51;52.13;101219.69;5053182;28;20872;-78
2023/07/10 08:58:26;;;;;;;5.78;3.10;;;;;;;28.54;52.13;101224.44;5046206;28;20048;-78
2023/07/10 09:01:27;;;;;;;6.40;3.53;;;;;;;28.56;52.46;101222.00;5059534;28;20051;-78
2023/07/10 09:04:17;;;;;;;7.60;3.80;;;;;;;28.58;52.27;101213.97;5059341;28;20402;-78
2023/07/10 09:07:03;;;;;;;7.68;3.83;;;;;;;28.59;52.18;101212.75;5060172;28;20047;-79
2023/07/10 09:10:03;;;;;;;6.97;3.28;;;;;;;28.65;52.13;101218.66;5044928;28;20059;-77
2023/07/10 09:12:54;;;;;;;6.75;4.10;;;;;;;28.72;52.16;101222.16;5061819;28;20064;-79
2023/07/10 09:15:47;;;;;;;;;;;;;;;28.77;52.17;101218.06;5060411;28;20517;-77
2023/07/10 09:18:32;;;;;;;9.73;5.03;;;;;;;28.84;52.59;101226.34;5042982;28;19912;-77
2023/07/10 09:21:25;;;;;;;16.60;5.82;;;;;;;28.89;52.04;101220.25;5071942;28;20051;-78
2023/07/10 09:24:19;;;;;;;8.10;4.43;;;;;;;28.91;51.57;101220.59;5130124;22;20384;-80
2023/07/10 09:27:11;;;;;;;10.98;4.10;;;;;;;28.91;51.81;101221.38;5098969;28;20042;-78
2023/07/10 09:29:56;;;;;;;8.10;5.10;;;;;;;28.92;51.50;101222.19;5112783;28;20531;-79
2023/07/10 09:32:42;;;;;;;6.20;3.63;;;;;;;28.93;51.44;101218.16;5111961;28;20681;-79
2023/07/10 09:35:27;;;;;;;11.20;4.28;;;;;;;29.03;50.97;101221.97;5112487;28;20511;-77
2023/07/10 09:38:14;;;;;;;13.63;4.15;;;;;;;29.20;50.60;101218.84;5097491;28;20066;-78
2023/07/10 09:40:58;;;;;;;8.82;3.92;;;;;;;29.26;51.15;101224.69;5112965;28;20054;-80
2023/07/10 09:44:10;;;;;;;10.80;5.05;;;;;;;29.30;51.01;101215.03;5103894;28;20462;-78
2023/07/10 09:47:08;;;;;;;13.32;4.85;;;;;;;29.94;48.97;101224.09;5109711;28;20046;-80
2023/07/10 09:50:01;;;;;;;11.82;4.57;;;;;;;29.94;48.97;101224.91;5113134;28;20101;-80
2023/07/10 09:52:52;;;;;;;8.73;4.40;;;;;;;29.75;49.37;101223.69;5113375;28;20425;-79
2023/07/10 09:55:43;;;;;;;15.75;4.72;;;;;;;29.68;49.86;101223.06;5113414;28;20047;-80
2023/07/10 09:58:28;;;;;;;7.15;4.43;;;;;;;29.68;49.97;101217.44;5113463;28;20047;-79
2023/07/10 10:01:13;;;;;;;6.55;4.38;;;;;;;29.82;50.05;101216.34;5113429;28;20229;-80
2023/07/10 10:04:01;;;;;;;9.90;4.72;;;;;;;29.87;49.89;101218.66;5102381;28;20047;-81
2023/07/10 10:06:55;;;;;;;6.38;4.43;;;;;;;29.74;49.82;101213.69;5112819;28;20051;-79
2023/07/10 10:09:40;;;;;;;7.95;3.67;;;;;;;29.65;50.31;101218.31;5113155;28;20039;-79
2023/07/10 10:12:31;;;;;;;9.15;4.55;;;;;;;29.62;50.62;101219.97;5111431;28;20047;-79
2023/07/10 10:15:32;;;;;;;9.65;4.47;;;;;;;29.74;50.19;101210.91;5113329;28;20047;-79
2023/07/10 10:18:26;;;;;;;6.75;4.40;;;;;;;29.71;50.56;101206.13;5113173;28;20054;-80
2023/07/10 10:21:14;;;;;;;7.70;4.50;;;;;;;29.70;50.75;101207.38;5112541;28;20051;-81
2023/07/10 10:24:04;;;;;;;6.55;4.28;;;;;;;29.70;50.56;101210.19;5112978;28;20050;-80
2023/07/10 10:26:54;;;;;;;9.48;4.45;;;;;;;29.69;50.50;101205.81;5107066;28;20039;-80
2023/07/10 10:29:42;;;;;;;10.90;4.00;;;;;;;29.68;50.70;101204.22;5111928;28;20043;-80
2023/07/10 10:33:00;;;;;;;10.93;5.78;;;;;;;29.67;50.50;101202.63;5112670;28;20051;-80
2023/07/10 10:35:53;;;;;;;13.82;5.57;;;;;;;29.81;50.87;101195.94;5113115;28;20046;-79
2023/07/10 10:39:09;;;;;;;7.18;4.60;;;;;;;29.92;50.14;101195.72;5113435;28;20400;-80
2023/07/10 10:42:00;;;;;;;7.95;4.47;;;;;;;29.85;50.27;101190.22;5113315;28;20038;-80
2023/07/10 10:45:10;;;;;;;11.63;4.63;;;;;;;29.93;50.42;101180.44;5116000;28;20420;-79
2023/07/10 10:48:04;;;;;;;6.70;3.90;;;;;;;29.93;50.34;101184.03;5118699;28;20046;-78
2023/07/10 10:51:13;;;;;;;12.68;4.85;;;;;;;29.96;50.87;101168.38;5115073;28;20043;-79
2023/07/10 10:54:04;;;;;;;7.63;4.55;;;;;;;30.03;50.21;101165.38;5116963;28;20038;-80
2023/07/10 10:57:02;;;;;;;9.27;4.50;;;;;;;29.96;50.45;101179.59;5096676;28;20054;-79
2023/07/10 11:00:28;;;;;;;8.35;4.75;;;;;;;29.90;50.50;101172.91;5097194;28;20047;-81
2023/07/10 11:03:31;;;;;;;;;;;;;;;29.87;50.51;101173.78;5097498;28;20063;-80
2023/07/10 11:06:33;;;;;;;13.23;5.70;;;;;;;29.89;50.84;101165.69;5079507;28;19912;-81
2023/07/10 11:09:37;;;;;;;11.63;5.53;;;;;;;29.87;50.57;101163.31;5081727;28;20063;-80
2023/07/10 11:12:26;;;;;;;9.20;4.53;;;;;;;29.89;50.76;101165.69;5096073;28;20043;-80
2023/07/10 11:15:20;;;;;;;9.45;4.85;;;;;;;29.99;50.17;101148.63;5081084;28;20047;-80
2023/07/10 11:18:04;;;;;;;9.38;4.43;;;;;;;29.97;49.72;101153.13;5096201;28;20046;-79
2023/07/10 11:20:50;;;;;;;9.60;4.53;;;;;;;29.98;49.82;101157.47;5087526;28;20143;-79
2023/07/10 11:23:49;;;;;;;7.88;4.28;;;;;;;30.00;49.84;101146.63;5095570;28;20063;-80
2023/07/10 11:26:35;;;;;;;8.65;4.25;;;;;;;29.95;49.85;101150.75;5111267;28;20054;-80
2023/07/10 11:29:34;;;;;;;8.18;4.70;;;;;;;29.98;50.10;101146.25;5100148;28;20051;-79
2023/07/10 11:32:21;;;;;;;10.48;5.53;;;;;;;29.96;50.04;101143.91;5112141;28;20047;-78
2023/07/10 11:35:18;;;;;;;12.38;5.20;;;;;;;29.98;50.27;101152.66;5083136;28;20050;-79
2023/07/10 11:38:14;;;;;;;15.18;5.05;;;;;;;29.98;50.00;101147.06;5110393;28;20050;-80
2023/07/10 11:41:24;;;;;;;6.70;4.90;;;;;;;29.98;49.94;101146.25;5109892;28;20042;-79
2023/07/10 11:44:31;;;;;;;9.10;4.32;;;;;;;29.97;49.85;101139.09;5096888;28;20050;-79
2023/07/10 11:47:28;;;;;;;8.65;4.47;;;;;;;29.97;49.90;101144.72;5113872;28;20046;-78
2023/07/10 11:50:22;;;;;;;6.15;4.13;;;;;;;29.96;49.62;101135.50;5114338;28;20054;-79
2023/07/10 11:53:13;;;;;;;5.50;3.67;;;;;;;29.97;49.34;101130.69;5113316;28;20759;-79
2023/07/10 11:55:58;;;;;;;8.38;4.90;;;;;;;29.97;49.38;101125.06;5099991;27;20050;-79
2023/07/10 11:58:45;;;;;;;6.13;4.40;;;;;;;29.98;49.14;101129.44;5091512;28;20424;-79
2023/07/10 12:01:31;;;;;;;9.30;5.18;;;;;;;30.00;49.06;101124.19;5108962;28;20062;-79
2023/07/10 12:04:18;;;;;;;6.72;4.82;;;;;;;30.03;49.20;101117.69;5100472;28;20051;-79
2023/07/10 12:07:02;;;;;;;5.15;3.83;;;;;;;30.05;48.98;101112.44;5097493;28;20047;-78
2023/07/10 12:09:51;;;;;;;6.85;4.38;;;;;;;30.08;48.96;101112.34;5112853;28;20577;-78
2023/07/10 12:12:36;;;;;;;10.43;5.03;;;;;;;30.08;49.14;101111.53;5106825;28;20043;-78
2023/07/10 12:15:23;;;;;;;5.55;3.88;;;;;;;30.09;48.86;101107.50;5095168;28;20515;-79
2023/07/10 12:18:08;;;;;;;5.88;4.10;;;;;;;30.09;49.00;101105.50;5095293;28;20046;-80
2023/07/10 12:20:54;;;;;;;8.55;4.32;;;;;;;30.10;48.95;101095.88;5091909;28;20039;-78
2023/07/10 12:23:38;;;;;;;6.57;4.20;;;;;;;30.13;48.78;101089.34;5090745;28;20490;-80
2023/07/10 12:26:22;;;;;;;10.50;5.43;;;;;;;30.17;48.61;101089.28;5105630;28;20046;-78
2023/07/10 12:29:13;;;;;;;9.18;4.90;;;;;;;30.26;48.76;101099.88;5106394;28;20054;-79
2023/07/10 12:31:58;;;;;;;8.25;4.75;;;;;;;30.26;48.89;101100.66;5103865;28;20047;-80
2023/07/10 12:34:43;;;;;;;8.73;4.82;;;;;;;30.23;48.90;101095.91;5104988;28;20042;-78
2023/07/10 12:37:28;;;;;;;10.57;4.82;;;;;;;30.25;48.91;101092.69;5112798;28;20518;-80
2023/07/10 12:40:15;;;;;;;12.32;5.57;;;;;;;30.25;49.16;101079.44;5113169;28;20503;-79
2023/07/10 12:43:19;;;;;;;7.72;4.40;;;;;;;30.31;49.25;101085.31;5077048;28;20357;-79
2023/07/10 12:46:16;;;;;;;8.02;4.65;;;;;;;30.32;49.20;101084.88;5077289;28;20050;-79
2023/07/10 12:49:10;;;;;;;6.28;4.28;;;;;;;30.52;47.87;101082.75;5082104;28;20042;-79
2023/07/10 12:51:57;;;;;;;8.15;4.45;;;;;;;30.51;48.42;101081.16;5112841;28;20047;-80
2023/07/10 12:54:46;;;;;;;12.18;4.80;;;;;;;30.46;48.66;101070.47;5099983;28;20054;-79
2023/07/10 12:57:35;;;;;;;11.45;4.80;;;;;;;30.44;48.74;101072.91;5097479;28;20519;-79
2023/07/10 13:00:20;;;;;;;15.77;4.63;;;;;;;30.42;48.41;101068.97;5112712;28;20050;-79
2023/07/10 13:03:18;;;;;;;16.55;5.20;;;;;;;30.45;48.12;101068.88;5112484;28;20051;-79